Time;durP1;ratioP1;P1;durP2;ratioP2;P2;SDS_P1;SDS_P2;PMS_P1;PMS_P2;Temp;Humidity;BMP_temperature;BMP_pressure;BME280_temperature;BME280_humidity;BME280_pressure;Samples;Min_cycle;Max_cycle;Signal;HPM_P1;HPM_P2
2022/12/20 00:02:10;;;;;;;11.02;7.20;;;22.20;99.90;;;;;;5035015;28;20034;-58
2022/12/20 00:04:36;;;;;;;11.18;7.68;;;22.10;99.90;;;;;;5035194;28;20026;-58
2022/12/20 00:07:02;;;;;;;11.25;7.43;;;22.10;99.90;;;;;;5035134;28;20021;-58
2022/12/20 00:09:28;;;;;;;11.48;8.05;;;22.10;99.90;;;;;;5034976;28;20037;-58
2022/12/20 00:11:53;;;;;;;12.98;7.63;;;22.10;99.90;;;;;;5034914;28;20032;-58
2022/12/20 00:14:19;;;;;;;11.68;7.57;;;22.10;99.90;;;;;;5034850;28;20025;-58
2022/12/20 00:16:45;;;;;;;9.95;7.13;;;22.00;99.90;;;;;;5035247;28;20041;-57
2022/12/20 00:19:11;;;;;;;11.32;7.45;;;22.00;99.90;;;;;;5034899;28;20105;-58
2022/12/20 00:21:37;;;;;;;10.98;7.15;;;22.00;99.90;;;;;;5034708;28;20033;-58
2022/12/20 00:24:05;;;;;;;10.82;7.57;;;22.00;99.90;;;;;;5034666;28;20605;-58
2022/12/20 00:26:31;;;;;;;;;;;22.00;99.90;;;;;;5035096;28;20033;-58
2022/12/20 00:28:58;;;;;;;9.88;6.63;;;21.90;99.90;;;;;;5034553;28;20368;-58
2022/12/20 00:31:26;;;;;;;11.40;7.77;;;21.90;99.90;;;;;;5034740;28;20018;-57
2022/12/20 00:33:54;;;;;;;9.80;6.80;;;21.90;99.90;;;;;;5034589;28;20266;-58
2022/12/20 00:36:21;;;;;;;10.60;7.40;;;21.90;99.90;;;;;;5034455;28;20046;-58
2022/12/20 00:38:49;;;;;;;11.70;7.70;;;21.90;99.90;;;;;;5034709;28;20044;-58
2022/12/20 00:41:19;;;;;;;9.75;6.70;;;21.90;99.90;;;;;;5034563;28;20488;-58
2022/12/20 00:43:45;;;;;;;13.05;7.53;;;21.90;99.90;;;;;;5016830;28;20033;-58
2022/12/20 00:46:12;;;;;;;11.73;7.32;;;21.90;99.90;;;;;;5034401;28;20029;-58
2022/12/20 00:48:38;;;;;;;8.88;6.40;;;21.80;99.90;;;;;;5034418;28;20025;-58
2022/12/20 00:51:06;;;;;;;11.90;7.05;;;21.80;99.90;;;;;;5034220;28;20027;-57
2022/12/20 00:53:32;;;;;;;13.77;7.20;;;21.80;99.90;;;;;;5016530;28;20416;-57
2022/12/20 00:55:59;;;;;;;9.90;6.80;;;21.80;99.90;;;;;;5034014;28;20033;-57
2022/12/20 00:58:25;;;;;;;11.27;7.35;;;21.80;99.90;;;;;;5016344;28;20375;-56
2022/12/20 01:00:51;;;;;;;9.90;6.50;;;21.80;99.90;;;;;;5034453;28;20052;-56
2022/12/20 01:03:18;;;;;;;11.10;7.75;;;21.80;99.90;;;;;;5016368;28;20475;-56
2022/12/20 01:05:55;;;;;;;12.48;7.22;;;21.70;99.90;;;;;;5033975;28;20507;-56
2022/12/20 01:08:22;;;;;;;10.13;6.72;;;21.70;99.90;;;;;;5034043;28;20104;-56
2022/12/20 01:11:07;;;;;;;9.88;6.70;;;21.70;99.90;;;;;;5033408;28;20037;-57
2022/12/20 01:13:36;;;;;;;13.73;7.18;;;21.70;99.90;;;;;;5033818;28;20100;-56
2022/12/20 01:16:20;;;;;;;10.50;7.20;;;21.70;99.90;;;;;;5033724;28;20044;-56
2022/12/20 01:18:47;;;;;;;11.82;7.35;;;21.70;99.90;;;;;;5033698;28;20021;-56
2022/12/20 01:21:15;;;;;;;7.97;6.15;;;21.60;99.90;;;;;;5033789;28;20048;-56
2022/12/20 01:23:41;;;;;;;10.38;6.13;;;21.60;99.90;;;;;;5033769;28;20022;-57
2022/12/20 01:26:10;;;;;;;10.23;7.07;;;21.60;99.90;;;;;;5033579;28;20017;-58
2022/12/20 01:28:38;;;;;;;14.23;7.22;;;21.60;99.90;;;;;;5033499;28;20060;-59
2022/12/20 01:31:08;;;;;;;9.77;6.78;;;21.60;99.90;;;;;;5033484;28;20419;-58
2022/12/20 01:33:34;;;;;;;10.60;7.30;;;21.60;99.90;;;;;;5033401;28;20361;-57
2022/12/20 01:36:03;;;;;;;10.20;7.72;;;21.60;99.90;;;;;;5033361;28;20499;-58
2022/12/20 01:38:29;;;;;;;9.55;6.78;;;21.60;99.90;;;;;;5033416;28;20383;-58
2022/12/20 01:40:56;;;;;;;11.75;7.90;;;21.60;99.90;;;;;;5033344;28;20084;-62
2022/12/20 01:43:23;;;;;;;11.20;7.03;;;21.60;99.90;;;;;;5033498;28;20091;-58
2022/12/20 01:45:49;;;;;;;11.00;7.30;;;21.50;99.90;;;;;;5033377;28;20037;-58
2022/12/20 01:48:22;;;;;;;9.00;6.13;;;21.60;99.90;;;;;;5033112;28;20498;-58
2022/12/20 01:50:50;;;;;;;11.60;7.75;;;21.50;99.90;;;;;;5033276;28;20028;-58
2022/12/20 01:53:18;;;;;;;9.85;7.00;;;21.50;99.90;;;;;;5033204;28;20048;-58
2022/12/20 01:55:46;;;;;;;9.65;6.90;;;21.50;99.90;;;;;;5032889;28;20033;-57
2022/12/20 01:58:13;;;;;;;;;;;21.50;99.90;;;;;;5033375;28;20383;-57
2022/12/20 02:00:39;;;;;;;8.88;6.75;;;21.50;99.90;;;;;;5033001;28;19917;-57
2022/12/20 02:03:08;;;;;;;10.52;7.20;;;21.50;99.90;;;;;;5033006;28;20036;-56
2022/12/20 02:05:36;;;;;;;10.43;7.97;;;21.50;99.90;;;;;;5032918;28;20045;-58
2022/12/20 02:08:03;;;;;;;10.55;7.40;;;21.40;99.90;;;;;;5015171;28;20026;-58
2022/12/20 02:11:01;;;;;;;9.70;6.90;;;21.40;99.90;;;;;;5015219;28;20025;-57
2022/12/20 02:13:39;;;;;;;9.25;6.68;;;21.40;99.90;;;;;;5032746;28;20104;-57
2022/12/20 02:16:05;;;;;;;10.52;7.47;;;21.40;99.90;;;;;;5032682;28;20034;-57
2022/12/20 02:18:43;;;;;;;11.13;7.35;;;21.40;99.90;;;;;;5032664;28;20025;-57
2022/12/20 02:21:24;;;;;;;8.90;6.50;;;21.40;99.90;;;;;;5031668;28;20025;-57
2022/12/20 02:24:20;;;;;;;10.65;7.18;;;21.40;99.90;;;;;;5032486;28;20033;-57
2022/12/20 02:26:48;;;;;;;9.85;6.80;;;21.40;99.90;;;;;;5032587;28;20084;-57
2022/12/20 02:29:27;;;;;;;9.20;6.45;;;21.30;99.90;;;;;;5032483;28;20503;-57
2022/12/20 02:32:15;;;;;;;11.02;7.07;;;21.30;99.90;;;;;;5032622;28;20026;-58
2022/12/20 02:34:42;;;;;;;10.43;7.55;;;21.30;99.90;;;;;;5032282;28;20029;-57
2022/12/20 02:37:09;;;;;;;11.23;7.13;;;21.30;99.90;;;;;;5032296;28;20033;-58
2022/12/20 02:39:38;;;;;;;10.32;6.68;;;21.30;99.90;;;;;;5032270;28;20025;-58
2022/12/20 02:42:10;;;;;;;10.75;7.75;;;21.30;99.90;;;;;;5032280;28;20028;-58
2022/12/20 02:47:34;;;;;;;9.68;6.70;;;21.30;99.90;;;;;;5032495;28;20101;-58
2022/12/20 02:50:01;;;;;;;10.90;6.72;;;21.30;99.90;;;;;;5032200;28;20068;-58
2022/12/20 02:52:29;;;;;;;10.30;6.85;;;21.20;99.90;;;;;;5032262;28;20013;-58
2022/12/20 02:54:56;;;;;;;9.25;6.90;;;21.30;99.90;;;;;;5032391;28;20026;-58
2022/12/20 02:57:52;;;;;;;11.07;6.97;;;21.30;99.90;;;;;;5032540;28;20038;-58
2022/12/20 03:00:20;;;;;;;13.85;7.25;;;21.30;99.90;;;;;;5028335;28;20321;-58
2022/12/20 03:05:34;;;;;;;10.77;6.82;;;21.20;99.90;;;;;;5032259;28;20083;-58
2022/12/20 03:08:00;;;;;;;9.18;6.13;;;21.20;99.90;;;;;;5031968;28;20026;-57
2022/12/20 03:10:25;;;;;;;8.48;5.90;;;21.20;99.90;;;;;;5032227;28;20032;-57
2022/12/20 03:12:51;;;;;;;10.60;6.72;;;21.20;99.90;;;;;;5031980;28;20380;-58
2022/12/20 03:15:17;;;;;;;9.35;6.15;;;21.20;99.90;;;;;;5014179;28;20028;-58
2022/12/20 03:17:43;;;;;;;10.15;7.00;;;21.20;99.90;;;;;;5031952;28;20395;-58
2022/12/20 03:20:10;;;;;;;11.05;6.97;;;21.20;99.90;;;;;;5031910;28;20438;-57
2022/12/20 03:22:36;;;;;;;7.95;6.40;;;21.20;99.90;;;;;;5031753;28;20038;-58
2022/12/20 03:25:02;;;;;;;8.93;5.78;;;21.10;99.90;;;;;;5031880;28;20044;-58
2022/12/20 03:27:28;;;;;;;8.38;5.90;;;21.10;99.90;;;;;;5032002;28;20034;-57
2022/12/20 03:29:54;;;;;;;9.10;6.82;;;21.10;99.90;;;;;;5031984;28;20018;-58
2022/12/20 03:32:21;;;;;;;8.25;6.03;;;21.10;99.90;;;;;;5032252;28;20101;-57
2022/12/20 03:34:47;;;;;;;10.23;6.65;;;21.10;99.90;;;;;;5035734;28;20436;-58
2022/12/20 03:37:13;;;;;;;8.55;6.28;;;21.10;99.90;;;;;;5035464;28;20105;-57
2022/12/20 03:39:38;;;;;;;8.50;5.88;;;21.10;99.90;;;;;;5035577;28;20025;-58
2022/12/20 03:42:04;;;;;;;10.02;6.38;;;21.10;99.90;;;;;;5035584;28;20040;-58
2022/12/20 03:44:30;;;;;;;8.30;5.97;;;21.10;99.90;;;;;;5035411;28;20384;-58
2022/12/20 03:46:55;;;;;;;8.98;6.43;;;21.10;99.90;;;;;;5035737;28;20091;-58
2022/12/20 03:49:21;;;;;;;8.30;6.25;;;21.10;99.90;;;;;;5035371;28;20136;-57
2022/12/20 03:51:47;;;;;;;11.07;6.30;;;21.10;99.90;;;;;;5035291;28;20108;-57
2022/12/20 03:54:13;;;;;;;8.98;6.07;;;21.00;99.90;;;;;;5035378;28;20076;-58
2022/12/20 03:56:39;;;;;;;9.77;6.18;;;21.00;99.90;;;;;;5035184;28;20029;-57
2022/12/20 04:01:45;;;;;;;10.18;6.35;;;21.00;99.90;;;;;;5013792;28;20058;-51
2022/12/20 04:04:13;;;;;;;9.95;6.00;;;21.00;99.90;;;;;;5015475;28;20030;-51
2022/12/20 04:06:38;;;;;;;8.05;6.13;;;21.00;99.90;;;;;;4997713;28;20026;-51
2022/12/20 04:09:04;;;;;;;9.38;5.78;;;21.00;99.90;;;;;;5015322;28;20041;-51
2022/12/20 04:11:30;;;;;;;9.10;6.05;;;21.00;99.90;;;;;;5015576;28;20109;-51
2022/12/20 04:13:56;;;;;;;8.13;5.50;;;20.90;99.90;;;;;;5014437;28;20491;-51
2022/12/20 04:16:27;;;;;;;10.25;6.38;;;20.90;99.90;;;;;;5015011;28;20061;-51
2022/12/20 04:18:53;;;;;;;10.70;5.68;;;20.90;99.90;;;;;;5015033;28;20380;-51
2022/12/20 04:21:30;;;;;;;9.27;6.35;;;20.90;99.90;;;;;;5015055;28;20117;-54
2022/12/20 04:23:58;;;;;;;7.95;5.82;;;20.90;99.90;;;;;;5015425;28;20021;-53
2022/12/20 04:26:24;;;;;;;8.85;6.30;;;20.90;99.90;;;;;;5014885;28;20045;-53
2022/12/20 04:28:50;;;;;;;9.05;5.65;;;20.90;99.90;;;;;;5014979;28;20071;-52
2022/12/20 04:31:16;;;;;;;7.43;5.70;;;20.80;99.90;;;;;;5014829;28;20052;-53
2022/12/20 04:33:42;;;;;;;10.48;6.28;;;20.90;99.90;;;;;;5014858;28;20464;-53
2022/12/20 04:36:08;;;;;;;9.00;5.55;;;20.90;99.90;;;;;;5014681;28;20038;-53
2022/12/20 04:38:34;;;;;;;7.65;5.68;;;20.90;99.90;;;;;;4997193;28;20030;-53
2022/12/20 04:41:00;;;;;;;7.95;5.95;;;20.80;99.90;;;;;;5014790;28;20519;-53
2022/12/20 04:43:26;;;;;;;8.55;5.72;;;20.80;99.90;;;;;;5013185;28;20026;-52
2022/12/20 04:45:55;;;;;;;8.55;5.88;;;20.80;99.90;;;;;;5013648;28;20026;-53
2022/12/20 04:48:23;;;;;;;8.82;6.13;;;20.80;99.90;;;;;;5014187;28;20110;-53
2022/12/20 04:50:50;;;;;;;8.68;5.95;;;20.80;99.90;;;;;;4997063;28;20037;-53
2022/12/20 04:56:01;;;;;;;9.30;6.18;;;20.80;99.90;;;;;;5014518;28;20092;-53
2022/12/20 04:58:27;;;;;;;7.90;5.85;;;20.80;99.90;;;;;;5014392;28;20029;-53
2022/12/20 05:00:53;;;;;;;10.48;5.50;;;20.80;99.90;;;;;;5014084;28;20137;-53
2022/12/20 05:03:20;;;;;;;7.50;5.82;;;20.80;99.90;;;;;;5014310;28;20460;-53
2022/12/20 05:05:45;;;;;;;10.43;6.17;;;20.80;99.90;;;;;;5014219;28;20026;-53
2022/12/20 05:08:11;;;;;;;9.88;5.50;;;20.70;99.90;;;;;;5013060;28;20056;-53
2022/12/20 05:10:37;;;;;;;8.40;5.35;;;20.70;99.90;;;;;;5014152;28;20443;-53
2022/12/20 05:13:03;;;;;;;7.40;5.85;;;20.70;99.90;;;;;;5014399;28;20030;-53
2022/12/20 05:15:29;;;;;;;9.73;6.30;;;20.70;99.90;;;;;;5014263;28;20037;-53
2022/12/20 05:18:04;;;;;;;8.40;5.47;;;20.70;99.90;;;;;;5014045;28;20034;-53
2022/12/20 05:20:31;;;;;;;10.10;6.70;;;20.70;99.90;;;;;;5014132;28;20075;-53
2022/12/20 05:28:29;;;;;;;7.93;5.60;;;20.70;99.90;;;;;;5014063;28;20049;-53
2022/12/20 05:30:55;;;;;;;9.27;5.68;;;20.70;99.90;;;;;;5013744;28;20058;-53
2022/12/20 05:33:21;;;;;;;7.45;5.70;;;20.70;99.90;;;;;;5013760;28;20076;-53
2022/12/20 05:35:47;;;;;;;6.28;5.05;;;20.70;99.90;;;;;;5013563;28;20117;-53
2022/12/20 05:38:12;;;;;;;10.38;6.10;;;20.70;99.90;;;;;;5013754;28;20073;-53
2022/12/20 05:40:39;;;;;;;8.80;6.15;;;20.70;99.90;;;;;;5013630;28;20392;-53
2022/12/20 05:43:05;;;;;;;9.32;5.95;;;20.60;99.90;;;;;;5013837;28;20033;-53
2022/12/20 05:45:32;;;;;;;8.93;6.18;;;20.60;99.90;;;;;;5013645;28;20026;-53
2022/12/20 05:47:58;;;;;;;8.27;5.93;;;20.60;99.90;;;;;;5013384;28;20026;-53
2022/12/20 05:50:24;;;;;;;9.10;5.68;;;20.60;99.90;;;;;;5013455;28;20021;-52
2022/12/20 05:52:49;;;;;;;7.32;5.70;;;20.60;99.90;;;;;;5013305;28;20049;-52
2022/12/20 05:55:15;;;;;;;8.48;5.85;;;20.60;99.90;;;;;;5012996;28;20477;-53
2022/12/20 05:57:41;;;;;;;7.95;5.43;;;20.60;99.90;;;;;;5013257;28;20030;-53
2022/12/20 06:00:08;;;;;;;6.97;5.40;;;20.60;99.90;;;;;;5012932;28;20117;-52
2022/12/20 06:02:33;;;;;;;7.90;5.97;;;20.60;99.90;;;;;;5013766;28;20063;-52
2022/12/20 06:04:59;;;;;;;8.63;6.03;;;20.60;99.90;;;;;;5013025;28;20026;-52
2022/12/20 06:07:27;;;;;;;7.68;5.85;;;20.60;99.90;;;;;;5013208;28;20071;-53
2022/12/20 06:09:54;;;;;;;7.43;5.97;;;20.60;99.90;;;;;;5013078;28;20113;-53
2022/12/20 06:12:20;;;;;;;9.93;5.45;;;20.60;99.90;;;;;;5013161;28;20064;-53
2022/12/20 06:14:46;;;;;;;6.88;5.07;;;20.60;99.90;;;;;;5012903;28;20030;-53
2022/12/20 06:17:12;;;;;;;8.60;5.68;;;20.60;99.90;;;;;;5012952;28;20041;-53
2022/12/20 06:19:40;;;;;;;7.43;5.25;;;20.60;99.90;;;;;;5012937;28;20070;-52
2022/12/20 06:22:07;;;;;;;8.38;5.80;;;20.60;99.90;;;;;;5013183;28;20121;-53
2022/12/20 06:24:34;;;;;;;7.67;5.60;;;20.60;99.90;;;;;;5013200;28;20033;-53
2022/12/20 06:27:00;;;;;;;8.27;5.45;;;20.60;99.90;;;;;;5011525;28;20026;-53
2022/12/20 06:29:26;;;;;;;7.57;5.22;;;20.60;99.90;;;;;;5011508;28;20425;-53
2022/12/20 06:31:52;;;;;;;8.27;5.80;;;20.60;99.90;;;;;;5012915;28;20106;-53
2022/12/20 06:34:18;;;;;;;9.18;5.60;;;20.60;99.90;;;;;;5012710;28;20384;-52
2022/12/20 06:36:44;;;;;;;7.35;5.50;;;20.60;99.90;;;;;;5012564;28;20037;-52
2022/12/20 06:39:09;;;;;;;8.13;5.57;;;20.60;99.90;;;;;;4994944;28;20022;-52
2022/12/20 06:41:36;;;;;;;7.38;6.07;;;20.60;99.90;;;;;;5012604;28;20080;-53
2022/12/20 06:44:01;;;;;;;8.57;5.22;;;20.50;99.90;;;;;;5012358;28;20392;-53
2022/12/20 06:46:27;;;;;;;7.68;5.35;;;20.50;99.90;;;;;;5012533;28;20022;-52
2022/12/20 06:48:55;;;;;;;12.43;5.60;;;20.50;99.90;;;;;;5012374;28;20076;-53
2022/12/20 06:51:21;;;;;;;14.13;5.93;;;20.60;99.90;;;;;;4994706;28;20022;-53
2022/12/20 06:53:47;;;;;;;7.72;5.97;;;20.50;99.90;;;;;;5012331;28;20030;-53
2022/12/20 06:56:13;;;;;;;8.48;5.30;;;20.50;99.90;;;;;;5012204;28;20025;-52
2022/12/20 06:58:39;;;;;;;9.23;5.35;;;20.50;99.90;;;;;;5011214;28;20117;-53
2022/12/20 07:01:05;;;;;;;9.07;5.20;;;20.50;99.90;;;;;;5012341;28;20069;-53
2022/12/20 07:03:30;;;;;;;10.45;5.70;;;20.50;99.90;;;;;;5012331;28;20034;-52
2022/12/20 07:05:56;;;;;;;11.30;5.85;;;20.50;99.90;;;;;;5012380;28;20026;-53
2022/12/20 07:08:23;;;;;;;7.95;5.70;;;20.50;99.90;;;;;;5014456;28;20040;-53
2022/12/20 07:10:51;;;;;;;9.40;5.27;;;20.50;99.90;;;;;;5016427;28;20030;-52
2022/12/20 07:13:17;;;;;;;10.25;6.00;;;20.50;99.90;;;;;;4998754;28;20263;-53
2022/12/20 07:15:43;;;;;;;11.25;6.20;;;20.50;99.90;;;;;;5016185;28;20033;-53
2022/12/20 07:18:09;;;;;;;11.68;6.78;;;20.50;99.90;;;;;;5016477;28;20072;-53
2022/12/20 07:20:35;;;;;;;8.40;6.22;;;20.40;99.90;;;;;;5016300;28;20480;-52
2022/12/20 07:23:01;;;;;;;11.05;6.82;;;20.50;99.90;;;;;;5016003;28;20034;-53
2022/12/20 07:25:27;;;;;;;11.43;6.90;;;20.40;99.90;;;;;;5015989;28;20038;-53
2022/12/20 07:27:53;;;;;;;12.00;7.38;;;20.40;99.90;;;;;;5016059;28;20030;-52
2022/12/20 07:30:19;;;;;;;11.38;7.13;;;20.40;99.90;;;;;;5016046;28;20034;-52
2022/12/20 07:32:46;;;;;;;10.35;6.88;;;20.40;99.90;;;;;;5014718;28;20526;-52
2022/12/20 07:35:13;;;;;;;16.77;7.45;;;20.40;99.90;;;;;;5015707;28;20034;-53
2022/12/20 07:37:38;;;;;;;12.10;6.97;;;20.40;99.90;;;;;;5016095;28;20113;-53
2022/12/20 07:40:05;;;;;;;11.77;7.05;;;20.40;99.90;;;;;;5015806;28;20439;-53
2022/12/20 07:42:32;;;;;;;14.35;7.70;;;20.40;99.90;;;;;;5015663;28;20105;-53
2022/12/20 07:44:57;;;;;;;11.10;6.72;;;20.40;99.90;;;;;;4998110;28;20022;-53
2022/12/20 07:47:23;;;;;;;8.43;6.22;;;20.40;99.90;;;;;;5015715;28;20071;-53
2022/12/20 07:49:49;;;;;;;11.98;6.75;;;20.40;99.90;;;;;;5015647;28;20125;-53
2022/12/20 07:52:18;;;;;;;12.90;7.40;;;20.40;99.90;;;;;;5014225;28;20200;-53
2022/12/20 07:54:48;;;;;;;10.50;7.05;;;20.40;99.90;;;;;;5015509;28;20030;-53
2022/12/20 07:57:33;;;;;;;15.13;7.22;;;20.40;99.90;;;;;;5015375;28;20398;-53
2022/12/20 08:00:00;;;;;;;11.88;7.18;;;20.40;99.90;;;;;;5015366;28;20038;-53
2022/12/20 08:02:39;;;;;;;16.45;7.70;;;20.40;99.90;;;;;;4997777;28;20478;-53
2022/12/20 08:05:08;;;;;;;13.75;7.53;;;20.40;99.90;;;;;;5015317;28;20365;-53
2022/12/20 08:07:36;;;;;;;13.50;7.25;;;20.40;99.90;;;;;;5015433;28;20063;-53
2022/12/20 08:10:04;;;;;;;11.30;7.22;;;20.40;99.90;;;;;;5015373;28;20022;-53
2022/12/20 08:12:31;;;;;;;11.93;7.47;;;20.40;99.90;;;;;;5015025;28;20048;-53
2022/12/20 08:14:58;;;;;;;9.48;6.70;;;20.40;99.90;;;;;;5015192;28;20105;-53
2022/12/20 08:17:24;;;;;;;12.07;7.78;;;20.40;99.90;;;;;;5014873;28;20034;-53
2022/12/20 08:19:50;;;;;;;12.80;7.72;;;20.50;99.90;;;;;;5014931;28;20037;-53
2022/12/20 08:22:19;;;;;;;11.05;7.10;;;20.50;99.90;;;;;;5014905;28;20025;-53
2022/12/20 08:24:45;;;;;;;10.02;6.75;;;20.60;99.90;;;;;;5014727;28;20032;-53
2022/12/20 08:27:11;;;;;;;14.18;7.57;;;20.60;99.90;;;;;;5015139;28;20029;-53
2022/12/20 08:29:37;;;;;;;14.48;8.02;;;20.60;99.90;;;;;;5014727;28;20030;-54
2022/12/20 08:32:03;;;;;;;10.57;6.53;;;20.60;99.90;;;;;;5014692;28;20021;-53
2022/12/20 08:34:29;;;;;;;10.75;7.50;;;20.60;99.90;;;;;;5014813;28;20033;-53
2022/12/20 08:36:55;;;;;;;13.70;7.28;;;20.60;99.90;;;;;;5013340;28;20487;-53
2022/12/20 08:39:20;;;;;;;12.80;8.63;;;20.60;99.90;;;;;;5014697;28;20030;-53
2022/12/20 08:41:46;;;;;;;11.30;7.75;;;20.60;99.90;;;;;;5014653;28;20026;-53
2022/12/20 08:44:12;;;;;;;14.57;8.68;;;20.70;99.90;;;;;;5014797;28;20026;-53
2022/12/20 08:46:38;;;;;;;13.30;8.68;;;20.70;99.90;;;;;;5014582;28;20045;-53
2022/12/20 08:49:05;;;;;;;14.15;7.82;;;20.70;99.90;;;;;;5014294;28;20029;-53
2022/12/20 08:51:30;;;;;;;12.38;7.60;;;20.70;99.90;;;;;;5014497;28;20116;-53
2022/12/20 08:53:56;;;;;;;14.52;8.45;;;20.70;99.90;;;;;;5014402;28;20119;-53
2022/12/20 08:56:22;;;;;;;13.20;8.30;;;20.70;99.90;;;;;;5014145;28;20033;-53
2022/12/20 08:58:48;;;;;;;11.40;7.82;;;20.70;99.90;;;;;;5014368;28;20029;-53
2022/12/20 09:01:16;;;;;;;11.88;7.30;;;20.70;99.90;;;;;;5014068;28;20061;-53
2022/12/20 09:03:43;;;;;;;12.07;7.90;;;20.70;99.90;;;;;;5014342;28;20037;-53
2022/12/20 09:06:15;;;;;;;11.30;8.40;;;20.70;99.90;;;;;;5013078;28;20072;-54
2022/12/20 09:08:41;;;;;;;13.68;8.48;;;20.70;99.90;;;;;;4996581;28;20476;-54
2022/12/20 09:11:11;;;;;;;14.15;7.90;;;20.70;99.90;;;;;;5014137;28;20022;-53
2022/12/20 09:13:37;;;;;;;11.77;7.53;;;20.70;99.90;;;;;;5013898;28;20049;-53
2022/12/20 09:16:04;;;;;;;14.68;8.32;;;20.70;99.90;;;;;;5013967;28;20037;-53
2022/12/20 09:18:30;;;;;;;16.25;8.73;;;20.70;99.90;;;;;;5013872;28;20029;-53
2022/12/20 09:21:00;;;;;;;17.67;9.02;;;20.70;99.90;;;;;;5013876;28;20032;-52
2022/12/20 09:23:27;;;;;;;13.98;9.50;;;20.70;99.90;;;;;;5013783;28;20049;-53
2022/12/20 09:25:52;;;;;;;13.95;8.77;;;20.70;99.90;;;;;;5013743;28;20018;-53
2022/12/20 09:28:19;;;;;;;15.20;8.60;;;20.70;99.90;;;;;;5013714;28;20027;-52
2022/12/20 09:30:45;;;;;;;13.57;8.32;;;20.70;99.90;;;;;;5013402;28;20026;-53
2022/12/20 09:33:10;;;;;;;14.68;8.88;;;20.70;99.90;;;;;;5013687;28;20091;-53
2022/12/20 09:35:43;;;;;;;16.08;9.52;;;20.70;99.90;;;;;;5013647;28;20049;-53
2022/12/20 09:38:08;;;;;;;12.40;9.05;;;20.70;99.90;;;;;;5013605;28;20049;-53
2022/12/20 09:40:37;;;;;;;13.43;8.35;;;20.70;99.90;;;;;;5013548;28;20022;-53
2022/12/20 09:43:03;;;;;;;12.38;8.48;;;20.70;99.90;;;;;;5013487;28;20049;-53
2022/12/20 09:45:34;;;;;;;11.45;8.45;;;20.70;99.90;;;;;;5013537;28;20010;-54
2022/12/20 09:48:00;;;;;;;12.30;8.70;;;20.80;99.90;;;;;;5013471;28;20487;-53
2022/12/20 09:51:03;;;;;;;14.25;8.90;;;20.80;99.90;;;;;;5013246;28;20037;-53
2022/12/20 09:53:35;;;;;;;12.52;8.23;;;20.80;99.90;;;;;;5013113;28;20036;-53
2022/12/20 09:56:18;;;;;;;15.07;8.63;;;20.80;99.90;;;;;;5013105;28;20037;-53
2022/12/20 09:59:11;;;;;;;13.27;9.35;;;20.90;99.90;;;;;;5013384;28;20026;-53
2022/12/20 10:01:37;;;;;;;14.02;8.57;;;20.90;99.90;;;;;;5010909;28;20042;-53
2022/12/20 10:04:16;;;;;;;13.68;9.40;;;21.00;99.90;;;;;;5013034;28;20034;-53
2022/12/20 10:07:12;;;;;;;13.02;8.32;;;21.00;99.90;;;;;;5013020;28;20022;-53
2022/12/20 10:10:14;;;;;;;12.80;8.80;;;21.00;99.90;;;;;;5004844;28;20030;-53
2022/12/20 10:12:45;;;;;;;13.05;9.00;;;21.10;99.90;;;;;;5011636;28;20038;-53
2022/12/20 10:15:23;;;;;;;10.73;7.88;;;21.10;99.90;;;;;;5012823;28;20018;-53
2022/12/20 10:18:24;;;;;;;12.85;8.55;;;21.10;99.90;;;;;;5013028;28;20079;-53
2022/12/20 10:21:15;;;;;;;14.52;9.02;;;21.20;99.90;;;;;;4993758;28;20069;-53
2022/12/20 10:24:00;;;;;;;17.02;9.15;;;21.20;99.90;;;;;;5012591;28;20034;-54
2022/12/20 10:26:28;;;;;;;15.48;9.00;;;21.20;99.90;;;;;;5012819;28;20025;-54
2022/12/20 10:28:53;;;;;;;15.18;9.55;;;21.30;99.90;;;;;;5012571;28;20476;-53
2022/12/20 10:31:19;;;;;;;12.48;8.30;;;21.30;99.90;;;;;;5012741;28;20116;-54
2022/12/20 10:33:45;;;;;;;14.07;9.10;;;21.30;99.90;;;;;;5011589;28;20113;-53
2022/12/20 10:36:28;;;;;;;16.60;8.95;;;21.30;99.90;;;;;;5012335;28;20121;-53
2022/12/20 10:38:59;;;;;;;16.48;9.93;;;21.40;99.90;;;;;;4994810;28;20365;-53
2022/12/20 10:41:31;;;;;;;15.18;8.07;;;21.40;99.90;;;;;;5011961;28;20022;-53
2022/12/20 10:44:31;;;;;;;12.25;8.50;;;21.40;99.90;;;;;;5011982;28;20503;-53
2022/12/20 10:46:59;;;;;;;12.75;8.23;;;21.40;99.90;;;;;;4993929;28;20544;-54
2022/12/20 10:49:31;;;;;;;13.30;8.30;;;21.40;99.90;;;;;;5012428;28;20024;-53
2022/12/20 10:52:12;;;;;;;13.13;8.40;;;21.40;99.90;;;;;;5012461;28;20028;-53
2022/12/20 10:54:44;;;;;;;13.98;8.93;;;21.40;99.90;;;;;;5012298;28;20014;-54
2022/12/20 10:57:20;;;;;;;14.13;8.57;;;21.40;99.90;;;;;;5012196;28;20699;-53
2022/12/20 10:59:53;;;;;;;16.23;8.75;;;21.50;99.90;;;;;;5012088;28;20022;-53
2022/12/20 11:02:38;;;;;;;19.48;9.50;;;21.50;99.90;;;;;;4994719;28;20034;-53
2022/12/20 11:05:10;;;;;;;13.95;8.18;;;21.60;99.90;;;;;;5012135;28;20048;-53
2022/12/20 11:07:38;;;;;;;17.00;8.80;;;21.60;99.90;;;;;;5011941;28;20030;-53
2022/12/20 11:10:23;;;;;;;14.35;8.52;;;21.60;99.90;;;;;;5012092;28;20037;-53
2022/12/20 11:13:00;;;;;;;14.60;8.50;;;21.70;99.90;;;;;;4994792;28;20030;-53
2022/12/20 11:15:30;;;;;;;;;;;21.70;99.90;;;;;;5012494;28;20141;-53
2022/12/20 11:18:16;;;;;;;11.02;8.15;;;21.70;99.90;;;;;;5012255;28;19909;-53
2022/12/20 11:21:04;;;;;;;12.60;7.90;;;21.80;99.90;;;;;;5012111;28;20026;-53
2022/12/20 11:23:43;;;;;;;14.45;8.10;;;21.80;99.90;;;;;;5012025;28;20022;-53
2022/12/20 11:26:24;;;;;;;13.65;8.57;;;21.80;99.90;;;;;;4994354;28;20062;-53
2022/12/20 11:28:59;;;;;;;12.50;8.30;;;21.80;99.90;;;;;;5012223;28;20026;-53
2022/12/20 11:31:28;;;;;;;14.48;8.27;;;21.80;99.90;;;;;;5012017;28;20030;-53
2022/12/20 11:34:02;;;;;;;16.58;8.15;;;21.80;99.90;;;;;;5012013;28;20025;-53
2022/12/20 11:36:38;;;;;;;12.73;7.68;;;21.80;99.90;;;;;;5011865;28;20496;-53
2022/12/20 11:39:22;;;;;;;11.95;8.05;;;21.90;99.90;;;;;;5012075;28;20116;-53
2022/12/20 11:42:13;;;;;;;17.65;8.88;;;21.90;99.90;;;;;;5011955;28;20025;-53
2022/12/20 11:44:57;;;;;;;12.43;7.95;;;22.00;99.90;;;;;;5011919;28;20049;-53
2022/12/20 11:47:28;;;;;;;9.50;7.05;;;22.00;99.90;;;;;;5011960;28;20022;-53
2022/12/20 11:50:09;;;;;;;10.40;7.15;;;22.10;99.90;;;;;;5011722;28;20417;-54
2022/12/20 11:52:49;;;;;;;11.27;7.55;;;22.10;99.90;;;;;;5010404;28;20026;-53
2022/12/20 11:55:24;;;;;;;12.40;7.28;;;22.20;99.90;;;;;;5014958;28;20068;-53
2022/12/20 11:58:12;;;;;;;13.93;7.07;;;22.20;99.90;;;;;;5015584;28;20245;-53
2022/12/20 12:00:40;;;;;;;15.15;9.10;;;22.30;99.90;;;;;;5015217;28;20046;-53
2022/12/20 12:03:26;;;;;;;;;;;22.30;99.90;;;;;;5015757;28;20033;-53
2022/12/20 12:06:14;;;;;;;13.63;7.00;;;22.40;99.90;;;;;;5015526;28;19905;-53
2022/12/20 12:08:53;;;;;;;14.15;8.00;;;22.40;99.90;;;;;;5011478;28;20132;-53
2022/12/20 12:11:31;;;;;;;16.08;7.90;;;22.50;99.90;;;;;;5015111;28;20033;-53
2022/12/20 12:14:00;;;;;;;12.25;7.55;;;22.50;99.90;;;;;;4997450;28;20025;-52
2022/12/20 12:16:34;;;;;;;16.02;7.93;;;22.60;99.90;;;;;;5015312;28;20029;-52
2022/12/20 12:19:01;;;;;;;12.52;7.38;;;22.60;99.90;;;;;;5015253;28;20033;-53
2022/12/20 12:21:51;;;;;;;11.53;8.03;;;22.60;99.90;;;;;;5015184;28;20080;-53
2022/12/20 12:24:33;;;;;;;15.10;8.02;;;22.70;99.90;;;;;;5014932;28;20025;-53
2022/12/20 12:27:00;;;;;;;14.13;7.57;;;22.70;99.90;;;;;;5014954;28;20034;-58
2022/12/20 12:29:28;;;;;;;14.57;7.63;;;22.70;99.90;;;;;;5015108;28;20061;-53
2022/12/20 12:32:03;;;;;;;13.38;7.38;;;22.70;99.90;;;;;;5014839;28;20032;-54
2022/12/20 12:34:47;;;;;;;12.23;7.38;;;22.80;99.90;;;;;;4997082;28;20108;-53
2022/12/20 12:37:45;;;;;;;12.13;7.72;;;22.80;99.90;;;;;;5014366;28;20037;-53
2022/12/20 12:40:47;;;;;;;13.63;7.72;;;22.80;99.90;;;;;;5014469;28;20033;-54
2022/12/20 12:43:51;;;;;;;13.95;8.07;;;22.90;99.90;;;;;;5013397;28;20036;-53
2022/12/20 12:46:33;;;;;;;15.13;8.07;;;22.90;99.90;;;;;;5014553;28;20109;-54
2022/12/20 12:49:11;;;;;;;11.70;7.90;;;22.90;99.90;;;;;;5014371;28;20480;-53
2022/12/20 12:51:38;;;;;;;;;;;23.00;99.90;;;;;;4997215;28;20116;-53
2022/12/20 12:54:24;;;;;;;12.63;8.95;;;23.00;99.90;;;;;;5013118;28;19912;-53
2022/12/20 12:56:51;;;;;;;16.40;8.88;;;23.00;99.90;;;;;;5014337;28;20377;-52
2022/12/20 12:59:40;;;;;;;12.57;8.00;;;23.00;99.90;;;;;;5014220;28;20084;-52
2022/12/20 13:02:16;;;;;;;17.50;8.60;;;23.00;99.90;;;;;;5014194;28;20045;-53
2022/12/20 13:05:19;;;;;;;13.05;8.55;;;23.00;99.90;;;;;;5013788;28;20049;-53
2022/12/20 13:07:45;;;;;;;15.65;8.40;;;23.00;99.90;;;;;;5014042;28;20022;-54
2022/12/20 13:10:14;;;;;;;18.13;8.90;;;23.00;99.90;;;;;;5014296;28;20105;-53
2022/12/20 13:12:40;;;;;;;18.20;9.63;;;23.00;99.90;;;;;;5013031;28;20122;-53
2022/12/20 13:15:21;;;;;;;17.33;9.57;;;23.00;99.90;;;;;;5013970;28;20105;-54